sensor_id;sensor_type;location;lat;lon;timestamp;pressure;altitude;pressure_sealevel;temperature
81885;BMP280;71340;55.154;30.266;2023-07-31T00:02:01;98683.22;;;18.00
81885;BMP280;71340;55.154;30.266;2023-07-31T00:04:26;98686.75;;;17.94
81885;BMP280;71340;55.154;30.266;2023-07-31T00:06:52;98685.69;;;17.91
81885;BMP280;71340;55.154;30.266;2023-07-31T00:09:17;98680.94;;;17.83
81885;BMP280;71340;55.154;30.266;2023-07-31T00:11:43;98683.91;;;17.85
81885;BMP280;71340;55.154;30.266;2023-07-31T00:14:08;98680.59;;;17.81
81885;BMP280;71340;55.154;30.266;2023-07-31T00:16:33;98682.00;;;17.85
81885;BMP280;71340;55.154;30.266;2023-07-31T00:18:59;98670.00;;;17.81
81885;BMP280;71340;55.154;30.266;2023-07-31T00:21:24;98672.31;;;17.79
81885;BMP280;71340;55.154;30.266;2023-07-31T00:23:49;98674.19;;;17.78
81885;BMP280;71340;55.154;30.266;2023-07-31T00:26:15;98673.19;;;17.72
81885;BMP280;71340;55.154;30.266;2023-07-31T00:28:40;98665.09;;;17.59
81885;BMP280;71340;55.154;30.266;2023-07-31T00:31:06;98668.56;;;17.56
81885;BMP280;71340;55.154;30.266;2023-07-31T00:33:31;98666.66;;;17.57
81885;BMP280;71340;55.154;30.266;2023-07-31T00:35:57;98656.06;;;17.57
81885;BMP280;71340;55.154;30.266;2023-07-31T00:38:22;98664.28;;;17.63
81885;BMP280;71340;55.154;30.266;2023-07-31T00:40:47;98662.78;;;17.62
81885;BMP280;71340;55.154;30.266;2023-07-31T00:43:13;98664.28;;;17.63
81885;BMP280;71340;55.154;30.266;2023-07-31T00:45:38;98663.19;;;17.60
81885;BMP280;71340;55.154;30.266;2023-07-31T00:48:04;98659.38;;;17.61
81885;BMP280;71340;55.154;30.266;2023-07-31T00:50:31;98664.66;;;17.61
81885;BMP280;71340;55.154;30.266;2023-07-31T00:52:56;98655.44;;;17.49
81885;BMP280;71340;55.154;30.266;2023-07-31T00:55:22;98660.41;;;17.47
81885;BMP280;71340;55.154;30.266;2023-07-31T00:57:48;98656.41;;;17.39
81885;BMP280;71340;55.154;30.266;2023-07-31T01:00:13;98652.34;;;17.31
81885;BMP280;71340;55.154;30.266;2023-07-31T01:02:38;98654.69;;;17.29
81885;BMP280;71340;55.154;30.266;2023-07-31T01:05:04;98647.69;;;17.19
81885;BMP280;71340;55.154;30.266;2023-07-31T01:10:15;98633.63;;;16.76
81885;BMP280;71340;55.154;30.266;2023-07-31T01:12:41;98635.63;;;16.95
81885;BMP280;71340;55.154;30.266;2023-07-31T01:15:08;98647.91;;;17.05
81885;BMP280;71340;55.154;30.266;2023-07-31T01:17:38;98652.41;;;16.85
81885;BMP280;71340;55.154;30.266;2023-07-31T01:20:12;98655.97;;;16.75
81885;BMP280;71340;55.154;30.266;2023-07-31T01:28:30;98673.41;;;16.96
81885;BMP280;71340;55.154;30.266;2023-07-31T01:30:59;98657.59;;;16.92
81885;BMP280;71340;55.154;30.266;2023-07-31T01:33:25;98659.47;;;16.92
81885;BMP280;71340;55.154;30.266;2023-07-31T01:35:51;98671.94;;;16.91
81885;BMP280;71340;55.154;30.266;2023-07-31T01:38:20;98648.06;;;16.72
81885;BMP280;71340;55.154;30.266;2023-07-31T01:40:51;98666.81;;;16.84
81885;BMP280;71340;55.154;30.266;2023-07-31T01:43:16;98660.38;;;16.82
81885;BMP280;71340;55.154;30.266;2023-07-31T01:45:42;98661.28;;;16.75
81885;BMP280;71340;55.154;30.266;2023-07-31T01:48:07;98657.59;;;16.69
81885;BMP280;71340;55.154;30.266;2023-07-31T01:50:32;98657.59;;;16.66
81885;BMP280;71340;55.154;30.266;2023-07-31T01:52:58;98668.47;;;16.71
81885;BMP280;71340;55.154;30.266;2023-07-31T01:55:23;98663.84;;;16.79
81885;BMP280;71340;55.154;30.266;2023-07-31T01:57:48;98656.72;;;16.76
81885;BMP280;71340;55.154;30.266;2023-07-31T02:00:14;98666.56;;;16.75
81885;BMP280;71340;55.154;30.266;2023-07-31T02:02:39;98665.13;;;16.67
81885;BMP280;71340;55.154;30.266;2023-07-31T02:05:05;98658.34;;;16.70
81885;BMP280;71340;55.154;30.266;2023-07-31T02:07:30;98662.16;;;16.65
81885;BMP280;71340;55.154;30.266;2023-07-31T02:09:56;98656.16;;;16.61
81885;BMP280;71340;55.154;30.266;2023-07-31T02:12:21;98664.47;;;16.63
81885;BMP280;71340;55.154;30.266;2023-07-31T02:14:47;98666.34;;;16.63
81885;BMP280;71340;55.154;30.266;2023-07-31T02:17:12;98658.47;;;16.59
81885;BMP280;71340;55.154;30.266;2023-07-31T02:19:37;98669.84;;;16.56
81885;BMP280;71340;55.154;30.266;2023-07-31T02:22:03;98670.69;;;16.49
81885;BMP280;71340;55.154;30.266;2023-07-31T02:24:28;98678.22;;;16.51
81885;BMP280;71340;55.154;30.266;2023-07-31T02:26:54;98671.06;;;16.51
81885;BMP280;71340;55.154;30.266;2023-07-31T02:29:19;98676.75;;;16.50
81885;BMP280;71340;55.154;30.266;2023-07-31T02:31:44;98673.69;;;16.55
81885;BMP280;71340;55.154;30.266;2023-07-31T02:34:10;98674.66;;;16.61
81885;BMP280;71340;55.154;30.266;2023-07-31T02:36:35;98667.16;;;16.60
81885;BMP280;71340;55.154;30.266;2023-07-31T02:39:00;98677.00;;;16.59
81885;BMP280;71340;55.154;30.266;2023-07-31T02:41:26;98676.47;;;16.68
81885;BMP280;71340;55.154;30.266;2023-07-31T02:43:51;98680.22;;;16.70
81885;BMP280;71340;55.154;30.266;2023-07-31T02:46:17;98673.75;;;16.75
81885;BMP280;71340;55.154;30.266;2023-07-31T02:48:42;98688.81;;;16.78
81885;BMP280;71340;55.154;30.266;2023-07-31T02:51:08;98683.97;;;16.73
81885;BMP280;71340;55.154;30.266;2023-07-31T02:53:33;98681.00;;;16.67
81885;BMP280;71340;55.154;30.266;2023-07-31T02:55:58;98680.19;;;16.74
81885;BMP280;71340;55.154;30.266;2023-07-31T02:58:24;98684.72;;;16.73
81885;BMP280;71340;55.154;30.266;2023-07-31T03:00:49;98681.63;;;16.78
81885;BMP280;71340;55.154;30.266;2023-07-31T03:03:14;98678.88;;;16.85
81885;BMP280;71340;55.154;30.266;2023-07-31T03:05:40;98683.75;;;16.87
81885;BMP280;71340;55.154;30.266;2023-07-31T03:08:05;98685.16;;;16.95
81885;BMP280;71340;55.154;30.266;2023-07-31T03:10:30;98680.16;;;17.00
81885;BMP280;71340;55.154;30.266;2023-07-31T03:12:56;98684.97;;;17.05
81885;BMP280;71340;55.154;30.266;2023-07-31T03:15:21;98682.78;;;17.00
81885;BMP280;71340;55.154;30.266;2023-07-31T03:17:46;98689.69;;;16.94
81885;BMP280;71340;55.154;30.266;2023-07-31T03:20:12;98683.06;;;16.83
81885;BMP280;71340;55.154;30.266;2023-07-31T03:22:37;98683.88;;;16.80
81885;BMP280;71340;55.154;30.266;2023-07-31T03:25:03;98685.25;;;16.88
81885;BMP280;71340;55.154;30.266;2023-07-31T03:27:29;98677.53;;;16.97
81885;BMP280;71340;55.154;30.266;2023-07-31T03:29:54;98677.16;;;16.98
81885;BMP280;71340;55.154;30.266;2023-07-31T03:32:20;98675.53;;;17.04
81885;BMP280;71340;55.154;30.266;2023-07-31T03:34:45;98673.50;;;17.12
81885;BMP280;71340;55.154;30.266;2023-07-31T03:37:11;98675.09;;;17.09
81885;BMP280;71340;55.154;30.266;2023-07-31T03:39:36;98679.56;;;17.12
81885;BMP280;71340;55.154;30.266;2023-07-31T03:42:02;98688.63;;;17.11
81885;BMP280;71340;55.154;30.266;2023-07-31T03:44:27;98684.53;;;17.10
81885;BMP280;71340;55.154;30.266;2023-07-31T03:46:52;98677.25;;;17.14
81885;BMP280;71340;55.154;30.266;2023-07-31T03:49:18;98680.94;;;17.20
81885;BMP280;71340;55.154;30.266;2023-07-31T03:51:43;98684.03;;;17.38
81885;BMP280;71340;55.154;30.266;2023-07-31T03:54:09;98690.38;;;17.44
81885;BMP280;71340;55.154;30.266;2023-07-31T03:56:35;98684.34;;;17.40
81885;BMP280;71340;55.154;30.266;2023-07-31T03:59:00;98689.75;;;17.37
81885;BMP280;71340;55.154;30.266;2023-07-31T04:01:26;98697.09;;;17.49
81885;BMP280;71340;55.154;30.266;2023-07-31T04:03:51;98690.78;;;17.63
81885;BMP280;71340;55.154;30.266;2023-07-31T04:06:16;98691.66;;;17.76
81885;BMP280;71340;55.154;30.266;2023-07-31T04:08:44;98695.16;;;17.92
81885;BMP280;71340;55.154;30.266;2023-07-31T04:11:10;98695.13;;;18.12
81885;BMP280;71340;55.154;30.266;2023-07-31T04:13:36;98694.22;;;18.18
81885;BMP280;71340;55.154;30.266;2023-07-31T04:16:01;98698.53;;;18.28
81885;BMP280;71340;55.154;30.266;2023-07-31T04:18:27;98691.63;;;18.31
81885;BMP280;71340;55.154;30.266;2023-07-31T04:20:52;98695.66;;;18.55
81885;BMP280;71340;55.154;30.266;2023-07-31T04:23:17;98685.66;;;18.63
81885;BMP280;71340;55.154;30.266;2023-07-31T04:25:43;98702.63;;;18.81
81885;BMP280;71340;55.154;30.266;2023-07-31T04:28:08;98704.06;;;18.86
81885;BMP280;71340;55.154;30.266;2023-07-31T04:30:33;98700.50;;;18.76
81885;BMP280;71340;55.154;30.266;2023-07-31T04:32:59;98705.53;;;18.87
81885;BMP280;71340;55.154;30.266;2023-07-31T04:35:24;98705.22;;;19.01
81885;BMP280;71340;55.154;30.266;2023-07-31T04:37:50;98704.19;;;19.11
81885;BMP280;71340;55.154;30.266;2023-07-31T04:40:16;98702.44;;;19.20
81885;BMP280;71340;55.154;30.266;2023-07-31T04:42:41;98696.94;;;19.27
81885;BMP280;71340;55.154;30.266;2023-07-31T04:45:08;98704.97;;;19.40
81885;BMP280;71340;55.154;30.266;2023-07-31T04:47:34;98699.34;;;19.50
81885;BMP280;71340;55.154;30.266;2023-07-31T04:49:59;98699.16;;;19.57
81885;BMP280;71340;55.154;30.266;2023-07-31T04:52:24;98704.66;;;19.79
81885;BMP280;71340;55.154;30.266;2023-07-31T04:54:50;98703.59;;;19.89
81885;BMP280;71340;55.154;30.266;2023-07-31T04:57:15;98700.63;;;19.87
81885;BMP280;71340;55.154;30.266;2023-07-31T04:59:40;98698.09;;;19.96
81885;BMP280;71340;55.154;30.266;2023-07-31T05:02:07;98692.34;;;20.10
81885;BMP280;71340;55.154;30.266;2023-07-31T05:04:33;98695.97;;;20.16
81885;BMP280;71340;55.154;30.266;2023-07-31T05:06:58;98696.41;;;20.40
81885;BMP280;71340;55.154;30.266;2023-07-31T05:09:24;98699.16;;;20.49
81885;BMP280;71340;55.154;30.266;2023-07-31T05:11:49;98693.75;;;20.52
81885;BMP280;71340;55.154;30.266;2023-07-31T05:14:14;98694.78;;;20.55
81885;BMP280;71340;55.154;30.266;2023-07-31T05:16:40;98694.34;;;20.69
81885;BMP280;71340;55.154;30.266;2023-07-31T05:19:06;98699.50;;;20.85
81885;BMP280;71340;55.154;30.266;2023-07-31T05:21:31;98698.88;;;20.93
81885;BMP280;71340;55.154;30.266;2023-07-31T05:23:57;98686.94;;;20.85
81885;BMP280;71340;55.154;30.266;2023-07-31T05:26:22;98692.25;;;20.98
81885;BMP280;71340;55.154;30.266;2023-07-31T05:28:47;98685.53;;;21.15
81885;BMP280;71340;55.154;30.266;2023-07-31T05:31:13;98687.72;;;21.29
81885;BMP280;71340;55.154;30.266;2023-07-31T05:33:38;98690.72;;;21.31
81885;BMP280;71340;55.154;30.266;2023-07-31T05:36:04;98683.03;;;21.33
81885;BMP280;71340;55.154;30.266;2023-07-31T05:38:29;98679.25;;;21.22
81885;BMP280;71340;55.154;30.266;2023-07-31T05:40:55;98684.97;;;21.20
81885;BMP280;71340;55.154;30.266;2023-07-31T05:43:20;98682.13;;;21.15
81885;BMP280;71340;55.154;30.266;2023-07-31T05:45:46;98681.59;;;21.41
81885;BMP280;71340;55.154;30.266;2023-07-31T05:48:11;98680.31;;;21.76
81885;BMP280;71340;55.154;30.266;2023-07-31T05:50:37;98680.31;;;21.85
81885;BMP280;71340;55.154;30.266;2023-07-31T05:53:04;98685.03;;;21.72
81885;BMP280;71340;55.154;30.266;2023-07-31T05:55:29;98687.50;;;21.58
81885;BMP280;71340;55.154;30.266;2023-07-31T05:57:55;98679.13;;;21.77
81885;BMP280;71340;55.154;30.266;2023-07-31T06:00:20;98680.91;;;21.50
81885;BMP280;71340;55.154;30.266;2023-07-31T06:02:47;98671.97;;;21.74
81885;BMP280;71340;55.154;30.266;2023-07-31T06:05:12;98679.03;;;21.90
81885;BMP280;71340;55.154;30.266;2023-07-31T06:07:38;98677.72;;;21.94
81885;BMP280;71340;55.154;30.266;2023-07-31T06:10:04;98681.44;;;22.06
81885;BMP280;71340;55.154;30.266;2023-07-31T06:12:34;98684.66;;;22.41
81885;BMP280;71340;55.154;30.266;2023-07-31T06:15:00;98678.44;;;22.35
81885;BMP280;71340;55.154;30.266;2023-07-31T06:17:25;98672.06;;;22.41
81885;BMP280;71340;55.154;30.266;2023-07-31T06:19:51;98674.88;;;22.47
81885;BMP280;71340;55.154;30.266;2023-07-31T06:22:17;98676.97;;;22.61
81885;BMP280;71340;55.154;30.266;2023-07-31T06:24:42;98671.94;;;22.54
81885;BMP280;71340;55.154;30.266;2023-07-31T06:27:08;98671.50;;;22.73
81885;BMP280;71340;55.154;30.266;2023-07-31T06:29:33;98666.59;;;22.54
81885;BMP280;71340;55.154;30.266;2023-07-31T06:31:59;98664.38;;;22.79
81885;BMP280;71340;55.154;30.266;2023-07-31T06:34:24;98659.78;;;22.80
81885;BMP280;71340;55.154;30.266;2023-07-31T06:36:50;98663.63;;;22.97
81885;BMP280;71340;55.154;30.266;2023-07-31T06:39:15;98672.97;;;22.92
81885;BMP280;71340;55.154;30.266;2023-07-31T06:41:41;98669.25;;;22.99
81885;BMP280;71340;55.154;30.266;2023-07-31T06:44:08;98670.75;;;23.00
81885;BMP280;71340;55.154;30.266;2023-07-31T06:46:33;98670.00;;;22.99
81885;BMP280;71340;55.154;30.266;2023-07-31T06:48:58;98674.72;;;23.22
81885;BMP280;71340;55.154;30.266;2023-07-31T06:51:24;98667.09;;;23.39
81885;BMP280;71340;55.154;30.266;2023-07-31T06:53:49;98672.78;;;23.41
81885;BMP280;71340;55.154;30.266;2023-07-31T06:56:14;98674.59;;;23.26
81885;BMP280;71340;55.154;30.266;2023-07-31T06:58:40;98678.31;;;23.19
81885;BMP280;71340;55.154;30.266;2023-07-31T07:01:05;98666.91;;;22.74
81885;BMP280;71340;55.154;30.266;2023-07-31T07:03:30;98670.75;;;22.91
81885;BMP280;71340;55.154;30.266;2023-07-31T07:05:56;98664.78;;;23.23
81885;BMP280;71340;55.154;30.266;2023-07-31T07:08:21;98672.00;;;23.49
81885;BMP280;71340;55.154;30.266;2023-07-31T07:10:47;98666.88;;;23.60
81885;BMP280;71340;55.154;30.266;2023-07-31T07:13:13;98668.78;;;23.78
81885;BMP280;71340;55.154;30.266;2023-07-31T07:15:39;98662.53;;;23.72
81885;BMP280;71340;55.154;30.266;2023-07-31T07:18:04;98663.69;;;23.47
81885;BMP280;71340;55.154;30.266;2023-07-31T07:20:29;98667.09;;;23.39
81885;BMP280;71340;55.154;30.266;2023-07-31T07:22:55;98671.94;;;23.17
81885;BMP280;71340;55.154;30.266;2023-07-31T07:25:20;98673.97;;;23.22
81885;BMP280;71340;55.154;30.266;2023-07-31T07:27:48;98670.91;;;23.05
81885;BMP280;71340;55.154;30.266;2023-07-31T07:30:14;98665.84;;;22.98
81885;BMP280;71340;55.154;30.266;2023-07-31T07:32:39;98667.44;;;23.32
81885;BMP280;71340;55.154;30.266;2023-07-31T07:35:06;98655.41;;;23.78
81885;BMP280;71340;55.154;30.266;2023-07-31T07:37:31;98654.56;;;24.19
81885;BMP280;71340;55.154;30.266;2023-07-31T07:39:56;98649.53;;;24.36
81885;BMP280;71340;55.154;30.266;2023-07-31T07:42:22;98658.00;;;24.20
81885;BMP280;71340;55.154;30.266;2023-07-31T07:44:48;98657.97;;;23.96
81885;BMP280;71340;55.154;30.266;2023-07-31T07:47:13;98657.44;;;23.83
81885;BMP280;71340;55.154;30.266;2023-07-31T07:49:38;98661.63;;;23.75
81885;BMP280;71340;55.154;30.266;2023-07-31T07:52:04;98666.81;;;23.88
81885;BMP280;71340;55.154;30.266;2023-07-31T07:54:30;98656.03;;;23.97
81885;BMP280;71340;55.154;30.266;2023-07-31T07:56:56;98663.13;;;24.09
81885;BMP280;71340;55.154;30.266;2023-07-31T07:59:21;98660.94;;;24.22
81885;BMP280;71340;55.154;30.266;2023-07-31T08:01:46;98646.78;;;23.98
81885;BMP280;71340;55.154;30.266;2023-07-31T08:04:13;98660.06;;;23.92
81885;BMP280;71340;55.154;30.266;2023-07-31T08:06:38;98655.69;;;24.04
81885;BMP280;71340;55.154;30.266;2023-07-31T08:09:04;98661.09;;;23.95
81885;BMP280;71340;55.154;30.266;2023-07-31T08:11:32;98652.16;;;24.21
81885;BMP280;71340;55.154;30.266;2023-07-31T08:13:57;98667.72;;;24.55
81885;BMP280;71340;55.154;30.266;2023-07-31T08:16:22;98662.19;;;24.73
81885;BMP280;71340;55.154;30.266;2023-07-31T08:18:48;98665.38;;;25.01
81885;BMP280;71340;55.154;30.266;2023-07-31T08:21:14;98659.81;;;25.04
81885;BMP280;71340;55.154;30.266;2023-07-31T08:23:40;98652.41;;;25.29
81885;BMP280;71340;55.154;30.266;2023-07-31T08:26:05;98657.78;;;24.99
81885;BMP280;71340;55.154;30.266;2023-07-31T08:28:31;98660.41;;;24.70
81885;BMP280;71340;55.154;30.266;2023-07-31T08:30:56;98656.38;;;24.75
81885;BMP280;71340;55.154;30.266;2023-07-31T08:33:21;98654.06;;;25.11
81885;BMP280;71340;55.154;30.266;2023-07-31T08:35:46;98663.53;;;25.22
81885;BMP280;71340;55.154;30.266;2023-07-31T08:38:12;98657.16;;;25.19
81885;BMP280;71340;55.154;30.266;2023-07-31T08:40:38;98652.06;;;24.92
81885;BMP280;71340;55.154;30.266;2023-07-31T08:43:03;98661.66;;;25.28
81885;BMP280;71340;55.154;30.266;2023-07-31T08:45:30;98653.78;;;25.73
81885;BMP280;71340;55.154;30.266;2023-07-31T08:47:56;98654.84;;;26.16
81885;BMP280;71340;55.154;30.266;2023-07-31T08:50:22;98652.69;;;26.00
81885;BMP280;71340;55.154;30.266;2023-07-31T08:52:49;98651.91;;;25.45
81885;BMP280;71340;55.154;30.266;2023-07-31T08:55:14;98652.88;;;25.12
81885;BMP280;71340;55.154;30.266;2023-07-31T08:57:41;98662.41;;;25.13
81885;BMP280;71340;55.154;30.266;2023-07-31T09:00:08;98659.63;;;24.93
81885;BMP280;71340;55.154;30.266;2023-07-31T09:02:38;98662.00;;;24.62
81885;BMP280;71340;55.154;30.266;2023-07-31T09:05:08;98664.56;;;24.57
81885;BMP280;71340;55.154;30.266;2023-07-31T09:07:35;98657.19;;;24.66
81885;BMP280;71340;55.154;30.266;2023-07-31T09:10:02;98662.88;;;24.97
81885;BMP280;71340;55.154;30.266;2023-07-31T09:12:28;98660.28;;;25.17
81885;BMP280;71340;55.154;30.266;2023-07-31T09:14:53;98661.00;;;25.33
81885;BMP280;71340;55.154;30.266;2023-07-31T09:17:29;98661.09;;;25.38
81885;BMP280;71340;55.154;30.266;2023-07-31T09:19:55;98657.66;;;25.38
81885;BMP280;71340;55.154;30.266;2023-07-31T09:22:34;98654.97;;;25.38
81885;BMP280;71340;55.154;30.266;2023-07-31T09:25:26;98653.09;;;25.44
81885;BMP280;71340;55.154;30.266;2023-07-31T09:28:01;98655.00;;;25.23
81885;BMP280;71340;55.154;30.266;2023-07-31T09:30:26;98668.78;;;25.31
81885;BMP280;71340;55.154;30.266;2023-07-31T09:33:01;98667.13;;;24.89
81885;BMP280;71340;55.154;30.266;2023-07-31T09:35:31;98675.34;;;24.86
81885;BMP280;71340;55.154;30.266;2023-07-31T09:37:59;98673.38;;;24.86
81885;BMP280;71340;55.154;30.266;2023-07-31T09:42:59;98665.84;;;25.43
81885;BMP280;71340;55.154;30.266;2023-07-31T09:45:25;98659.25;;;25.99
81885;BMP280;71340;55.154;30.266;2023-07-31T09:47:50;98662.22;;;26.01
81885;BMP280;71340;55.154;30.266;2023-07-31T09:50:16;98663.38;;;25.94
81885;BMP280;71340;55.154;30.266;2023-07-31T09:52:42;98664.31;;;26.11
81885;BMP280;71340;55.154;30.266;2023-07-31T09:55:08;98659.78;;;26.43
81885;BMP280;71340;55.154;30.266;2023-07-31T09:57:34;98667.50;;;26.81
81885;BMP280;71340;55.154;30.266;2023-07-31T10:00:10;98665.47;;;27.33
81885;BMP280;71340;55.154;30.266;2023-07-31T10:02:46;98656.34;;;27.61
81885;BMP280;71340;55.154;30.266;2023-07-31T10:05:14;98653.66;;;27.61
81885;BMP280;71340;55.154;30.266;2023-07-31T10:07:47;98651.44;;;27.54
81885;BMP280;71340;55.154;30.266;2023-07-31T10:10:15;98664.94;;;27.23
81885;BMP280;71340;55.154;30.266;2023-07-31T10:12:41;98660.41;;;27.09
81885;BMP280;71340;55.154;30.266;2023-07-31T10:15:12;98655.78;;;26.58
81885;BMP280;71340;55.154;30.266;2023-07-31T10:17:40;98655.91;;;26.24
81885;BMP280;71340;55.154;30.266;2023-07-31T10:20:06;98660.19;;;25.96
81885;BMP280;71340;55.154;30.266;2023-07-31T10:22:32;98663.44;;;25.80
81885;BMP280;71340;55.154;30.266;2023-07-31T10:24:59;98647.63;;;25.87
81885;BMP280;71340;55.154;30.266;2023-07-31T10:27:25;98655.38;;;26.00
81885;BMP280;71340;55.154;30.266;2023-07-31T10:29:53;98660.00;;;26.19
81885;BMP280;71340;55.154;30.266;2023-07-31T10:32:19;98653.59;;;26.37
81885;BMP280;71340;55.154;30.266;2023-07-31T10:34:45;98655.34;;;26.40
81885;BMP280;71340;55.154;30.266;2023-07-31T10:37:36;98648.25;;;25.97
81885;BMP280;71340;55.154;30.266;2023-07-31T10:40:04;98646.91;;;26.72
81885;BMP280;71340;55.154;30.266;2023-07-31T10:42:37;98654.28;;;27.45
81885;BMP280;71340;55.154;30.266;2023-07-31T10:45:08;98641.75;;;27.37
81885;BMP280;71340;55.154;30.266;2023-07-31T10:47:38;98641.94;;;27.64
81885;BMP280;71340;55.154;30.266;2023-07-31T10:50:24;98644.91;;;27.30
81885;BMP280;71340;55.154;30.266;2023-07-31T10:52:51;98645.44;;;27.03
81885;BMP280;71340;55.154;30.266;2023-07-31T10:55:36;98640.44;;;26.64
81885;BMP280;71340;55.154;30.266;2023-07-31T10:58:12;98646.50;;;26.54
81885;BMP280;71340;55.154;30.266;2023-07-31T11:00:43;98652.50;;;26.49
81885;BMP280;71340;55.154;30.266;2023-07-31T11:03:18;98657.75;;;26.12
81885;BMP280;71340;55.154;30.266;2023-07-31T11:08:16;98653.44;;;26.00
81885;BMP280;71340;55.154;30.266;2023-07-31T11:10:46;98661.44;;;26.15
81885;BMP280;71340;55.154;30.266;2023-07-31T11:13:12;98657.06;;;26.63
81885;BMP280;71340;55.154;30.266;2023-07-31T11:15:38;98655.53;;;27.13
81885;BMP280;71340;55.154;30.266;2023-07-31T11:18:04;98650.63;;;27.48
81885;BMP280;71340;55.154;30.266;2023-07-31T11:20:35;98645.59;;;27.61
81885;BMP280;71340;55.154;30.266;2023-07-31T11:23:02;98645.38;;;27.65
81885;BMP280;71340;55.154;30.266;2023-07-31T11:25:31;98644.50;;;27.90
81885;BMP280;71340;55.154;30.266;2023-07-31T11:27:58;98647.84;;;28.43
81885;BMP280;71340;55.154;30.266;2023-07-31T11:30:27;98649.06;;;28.42
81885;BMP280;71340;55.154;30.266;2023-07-31T11:32:55;98635.56;;;28.48
81885;BMP280;71340;55.154;30.266;2023-07-31T11:35:20;98631.19;;;28.61
81885;BMP280;71340;55.154;30.266;2023-07-31T11:37:45;98631.44;;;28.85
81885;BMP280;71340;55.154;30.266;2023-07-31T11:40:11;98639.25;;;28.39
81885;BMP280;71340;55.154;30.266;2023-07-31T11:42:36;98650.44;;;28.05
81885;BMP280;71340;55.154;30.266;2023-07-31T11:45:06;98652.31;;;27.40
81885;BMP280;71340;55.154;30.266;2023-07-31T11:47:33;98653.81;;;27.41
81885;BMP280;71340;55.154;30.266;2023-07-31T11:50:06;98649.16;;;27.95
81885;BMP280;71340;55.154;30.266;2023-07-31T11:52:39;98651.41;;;27.96
81885;BMP280;71340;55.154;30.266;2023-07-31T11:55:06;98644.38;;;28.26
81885;BMP280;71340;55.154;30.266;2023-07-31T11:57:35;98646.16;;;28.68
81885;BMP280;71340;55.154;30.266;2023-07-31T12:00:01;98653.00;;;29.02
81885;BMP280;71340;55.154;30.266;2023-07-31T12:02:26;98650.09;;;28.94
81885;BMP280;71340;55.154;30.266;2023-07-31T12:04:52;98649.28;;;28.22
81885;BMP280;71340;55.154;30.266;2023-07-31T12:07:17;98645.13;;;28.32
81885;BMP280;71340;55.154;30.266;2023-07-31T12:09:55;98643.44;;;29.18
81885;BMP280;71340;55.154;30.266;2023-07-31T12:12:25;98636.81;;;28.96
81885;BMP280;71340;55.154;30.266;2023-07-31T12:14:51;98650.84;;;27.87
81885;BMP280;71340;55.154;30.266;2023-07-31T12:17:17;98639.66;;;28.05
81885;BMP280;71340;55.154;30.266;2023-07-31T12:19:44;98642.81;;;28.03
81885;BMP280;71340;55.154;30.266;2023-07-31T12:22:14;98630.22;;;28.53
81885;BMP280;71340;55.154;30.266;2023-07-31T12:24:43;98634.84;;;29.19
81885;BMP280;71340;55.154;30.266;2023-07-31T12:27:13;98622.53;;;29.35
81885;BMP280;71340;55.154;30.266;2023-07-31T12:29:42;98622.13;;;28.98
81885;BMP280;71340;55.154;30.266;2023-07-31T12:32:22;98627.25;;;29.86
81885;BMP280;71340;55.154;30.266;2023-07-31T12:34:49;98613.34;;;30.11
81885;BMP280;71340;55.154;30.266;2023-07-31T12:37:14;98624.56;;;30.26
81885;BMP280;71340;55.154;30.266;2023-07-31T12:39:40;98608.75;;;30.01
81885;BMP280;71340;55.154;30.266;2023-07-31T12:42:05;98608.44;;;29.64
81885;BMP280;71340;55.154;30.266;2023-07-31T12:44:31;98614.47;;;29.86
81885;BMP280;71340;55.154;30.266;2023-07-31T12:46:56;98623.28;;;30.62
81885;BMP280;71340;55.154;30.266;2023-07-31T12:49:22;98622.22;;;31.43
81885;BMP280;71340;55.154;30.266;2023-07-31T12:51:47;98619.84;;;32.08
81885;BMP280;71340;55.154;30.266;2023-07-31T12:54:12;98608.53;;;32.67
81885;BMP280;71340;55.154;30.266;2023-07-31T12:56:38;98616.19;;;32.95
81885;BMP280;71340;55.154;30.266;2023-07-31T12:59:03;98619.81;;;32.71
81885;BMP280;71340;55.154;30.266;2023-07-31T13:01:29;98619.50;;;33.60
81885;BMP280;71340;55.154;30.266;2023-07-31T13:03:54;98620.03;;;33.92
81885;BMP280;71340;55.154;30.266;2023-07-31T13:06:19;98608.72;;;33.68
81885;BMP280;71340;55.154;30.266;2023-07-31T13:08:45;98604.84;;;34.17
81885;BMP280;71340;55.154;30.266;2023-07-31T13:11:10;98595.16;;;34.57
81885;BMP280;71340;55.154;30.266;2023-07-31T13:13:36;98606.75;;;33.89
81885;BMP280;71340;55.154;30.266;2023-07-31T13:16:01;98610.91;;;34.79
81885;BMP280;71340;55.154;30.266;2023-07-31T13:18:26;98603.84;;;34.56
81885;BMP280;71340;55.154;30.266;2023-07-31T13:20:52;98607.34;;;33.74
81885;BMP280;71340;55.154;30.266;2023-07-31T13:23:17;98604.94;;;34.88
81885;BMP280;71340;55.154;30.266;2023-07-31T13:25:42;98602.47;;;35.05
81885;BMP280;71340;55.154;30.266;2023-07-31T13:28:08;98601.19;;;35.64
81885;BMP280;71340;55.154;30.266;2023-07-31T13:30:33;98601.41;;;36.04
81885;BMP280;71340;55.154;30.266;2023-07-31T13:32:59;98588.63;;;36.44
81885;BMP280;71340;55.154;30.266;2023-07-31T13:35:24;98592.31;;;36.86
81885;BMP280;71340;55.154;30.266;2023-07-31T13:37:49;98596.91;;;37.23
81885;BMP280;71340;55.154;30.266;2023-07-31T13:40:15;98586.66;;;37.24
81885;BMP280;71340;55.154;30.266;2023-07-31T13:42:40;98578.50;;;36.77
81885;BMP280;71340;55.154;30.266;2023-07-31T13:45:06;98578.06;;;36.48
81885;BMP280;71340;55.154;30.266;2023-07-31T13:47:31;98570.28;;;36.07
81885;BMP280;71340;55.154;30.266;2023-07-31T13:49:57;98571.69;;;36.92
81885;BMP280;71340;55.154;30.266;2023-07-31T13:52:22;98567.88;;;37.28
81885;BMP280;71340;55.154;30.266;2023-07-31T13:54:48;98563.38;;;37.15
81885;BMP280;71340;55.154;30.266;2023-07-31T13:57:13;98561.09;;;37.29
81885;BMP280;71340;55.154;30.266;2023-07-31T13:59:38;98554.56;;;37.73
81885;BMP280;71340;55.154;30.266;2023-07-31T14:02:04;98561.97;;;37.63
81885;BMP280;71340;55.154;30.266;2023-07-31T14:04:29;98547.69;;;37.65
81885;BMP280;71340;55.154;30.266;2023-07-31T14:06:55;98548.97;;;38.56